KVEL/VEL METAR and TAF weather

Enter ICAO airport designator
Station Type Date Time Source
KVEL METAR 2019/09/21 20:53 UTC NOAA

KVEL 212053Z AUTO 24004KT 10SM CLR 17/M04 A3011 RMK AO2 SLP166 T01671044 56012


Station Type Date Time Source
KVEL Decoded METAR 2019/09/21 20:53 UTC NOAA

VERNAL AIRPORT, UT, United States (KVEL) 40-26N 109-30W 1604M
Sep 21, 2019 - 04:53 PM EDT / 2019.09.21 2053 UTC
Wind: from the WSW (240 degrees) at 5 MPH (4 KT):0
Visibility: 10 mile(s):0
Sky conditions: clear
Temperature: 62.1 F (16.7 C)
Dew Point: 24.1 F (-4.4 C)
Relative Humidity: 23%
Pressure (altimeter): 30.11 in. Hg (1019 hPa)
Pressure tendency: 0.04 inches (1.2 hPa) lower than three hours ago
ob: KVEL 212053Z AUTO 24004KT 10SM CLR 17/M04 A3011 RMK AO2 SLP166 T01671044 56012
cycle: 21

Station Type Date Time Source
KVEL TAF 2019/09/21 18:30 UTC NOAA

TAF KVEL 211728Z 2118/2218 VRB03KT P6SM FEW250
FM212000 21006KT P6SM FEW110 FEW250
FM220000 35006KT P6SM FEW250
FM220300 31005KT P6SM FEW250
FM221200 VRB03KT P6SM SKC

Example: see airport list